sensor_id;sensor_type;location;lat;lon;timestamp;P1;durP1;ratioP1;P2;durP2;ratioP2
67500;SDS011;54349;52.528;19.760;2022-10-16T00:01:44;11.90;;;8.20;;
67500;SDS011;54349;52.528;19.760;2022-10-16T00:04:12;14.10;;;8.00;;
67500;SDS011;54349;52.528;19.760;2022-10-16T00:06:41;11.30;;;8.50;;
67500;SDS011;54349;52.528;19.760;2022-10-16T00:09:09;11.60;;;8.30;;
67500;SDS011;54349;52.528;19.760;2022-10-16T00:11:39;12.60;;;8.90;;
67500;SDS011;54349;52.528;19.760;2022-10-16T00:14:12;12.10;;;8.60;;
67500;SDS011;54349;52.528;19.760;2022-10-16T00:16:42;11.70;;;8.10;;
67500;SDS011;54349;52.528;19.760;2022-10-16T00:19:11;12.10;;;8.60;;
67500;SDS011;54349;52.528;19.760;2022-10-16T00:21:40;11.20;;;8.30;;
67500;SDS011;54349;52.528;19.760;2022-10-16T00:24:09;11.70;;;8.20;;
67500;SDS011;54349;52.528;19.760;2022-10-16T00:26:39;13.00;;;8.60;;
67500;SDS011;54349;52.528;19.760;2022-10-16T00:29:08;13.50;;;8.50;;
67500;SDS011;54349;52.528;19.760;2022-10-16T00:31:36;14.50;;;8.80;;
67500;SDS011;54349;52.528;19.760;2022-10-16T00:34:04;11.00;;;7.90;;
67500;SDS011;54349;52.528;19.760;2022-10-16T00:36:33;12.20;;;8.30;;
67500;SDS011;54349;52.528;19.760;2022-10-16T00:39:01;12.30;;;8.10;;
67500;SDS011;54349;52.528;19.760;2022-10-16T00:41:30;12.70;;;8.30;;
67500;SDS011;54349;52.528;19.760;2022-10-16T00:44:02;12.50;;;8.30;;
67500;SDS011;54349;52.528;19.760;2022-10-16T00:46:38;11.40;;;8.00;;
67500;SDS011;54349;52.528;19.760;2022-10-16T00:49:17;11.40;;;7.70;;
67500;SDS011;54349;52.528;19.760;2022-10-16T00:51:49;11.40;;;7.90;;
67500;SDS011;54349;52.528;19.760;2022-10-16T00:54:26;10.90;;;8.20;;
67500;SDS011;54349;52.528;19.760;2022-10-16T00:57:00;11.30;;;7.70;;
67500;SDS011;54349;52.528;19.760;2022-10-16T01:02:14;10.70;;;7.30;;
67500;SDS011;54349;52.528;19.760;2022-10-16T01:04:48;10.90;;;7.30;;
67500;SDS011;54349;52.528;19.760;2022-10-16T01:07:52;11.50;;;7.70;;
67500;SDS011;54349;52.528;19.760;2022-10-16T01:10:38;11.30;;;7.60;;
67500;SDS011;54349;52.528;19.760;2022-10-16T01:13:12;10.10;;;7.70;;
67500;SDS011;54349;52.528;19.760;2022-10-16T01:16:29;10.80;;;7.70;;
67500;SDS011;54349;52.528;19.760;2022-10-16T01:19:12;10.60;;;7.70;;
67500;SDS011;54349;52.528;19.760;2022-10-16T01:21:46;10.70;;;7.80;;
67500;SDS011;54349;52.528;19.760;2022-10-16T01:27:28;10.20;;;7.30;;
67500;SDS011;54349;52.528;19.760;2022-10-16T01:30:21;12.50;;;7.60;;
67500;SDS011;54349;52.528;19.760;2022-10-16T01:33:08;11.10;;;7.50;;
67500;SDS011;54349;52.528;19.760;2022-10-16T01:35:46;12.00;;;7.80;;
67500;SDS011;54349;52.528;19.760;2022-10-16T01:41:01;10.40;;;7.20;;
67500;SDS011;54349;52.528;19.760;2022-10-16T01:43:42;10.10;;;7.30;;
67500;SDS011;54349;52.528;19.760;2022-10-16T01:46:27;11.40;;;7.30;;
67500;SDS011;54349;52.528;19.760;2022-10-16T01:48:59;11.60;;;8.10;;
67500;SDS011;54349;52.528;19.760;2022-10-16T01:51:29;10.90;;;7.70;;
67500;SDS011;54349;52.528;19.760;2022-10-16T01:54:00;12.30;;;8.30;;
67500;SDS011;54349;52.528;19.760;2022-10-16T01:56:30;10.10;;;7.50;;
67500;SDS011;54349;52.528;19.760;2022-10-16T01:59:06;10.40;;;7.20;;
67500;SDS011;54349;52.528;19.760;2022-10-16T02:01:42;11.10;;;7.40;;
67500;SDS011;54349;52.528;19.760;2022-10-16T02:04:39;10.40;;;7.00;;
67500;SDS011;54349;52.528;19.760;2022-10-16T02:07:10;10.80;;;7.20;;
67500;SDS011;54349;52.528;19.760;2022-10-16T02:09:39;11.70;;;7.50;;
67500;SDS011;54349;52.528;19.760;2022-10-16T02:12:15;11.30;;;7.60;;
67500;SDS011;54349;52.528;19.760;2022-10-16T02:14:49;10.80;;;7.40;;
67500;SDS011;54349;52.528;19.760;2022-10-16T02:17:18;10.70;;;7.40;;
67500;SDS011;54349;52.528;19.760;2022-10-16T02:19:49;10.30;;;7.70;;
67500;SDS011;54349;52.528;19.760;2022-10-16T02:22:36;9.40;;;6.90;;
67500;SDS011;54349;52.528;19.760;2022-10-16T02:25:11;12.80;;;7.60;;
67500;SDS011;54349;52.528;19.760;2022-10-16T02:27:51;9.90;;;7.10;;
67500;SDS011;54349;52.528;19.760;2022-10-16T02:33:11;9.60;;;7.30;;
67500;SDS011;54349;52.528;19.760;2022-10-16T02:35:45;9.30;;;7.00;;
67500;SDS011;54349;52.528;19.760;2022-10-16T02:38:16;9.80;;;6.90;;
67500;SDS011;54349;52.528;19.760;2022-10-16T02:40:45;9.90;;;7.10;;
67500;SDS011;54349;52.528;19.760;2022-10-16T02:43:14;8.70;;;6.80;;
67500;SDS011;54349;52.528;19.760;2022-10-16T02:45:42;10.30;;;7.20;;
67500;SDS011;54349;52.528;19.760;2022-10-16T02:48:10;9.30;;;6.10;;
67500;SDS011;54349;52.528;19.760;2022-10-16T02:50:38;10.60;;;7.10;;
67500;SDS011;54349;52.528;19.760;2022-10-16T02:53:06;9.40;;;6.80;;
67500;SDS011;54349;52.528;19.760;2022-10-16T02:55:34;9.90;;;6.80;;
67500;SDS011;54349;52.528;19.760;2022-10-16T02:58:02;9.40;;;6.60;;
67500;SDS011;54349;52.528;19.760;2022-10-16T03:00:31;9.30;;;6.70;;
67500;SDS011;54349;52.528;19.760;2022-10-16T03:02:58;9.80;;;7.10;;
67500;SDS011;54349;52.528;19.760;2022-10-16T03:05:26;9.30;;;6.60;;
67500;SDS011;54349;52.528;19.760;2022-10-16T03:07:55;11.80;;;7.00;;
67500;SDS011;54349;52.528;19.760;2022-10-16T03:10:23;9.20;;;5.90;;
67500;SDS011;54349;52.528;19.760;2022-10-16T03:12:51;9.20;;;6.70;;
67500;SDS011;54349;52.528;19.760;2022-10-16T03:15:19;8.90;;;6.40;;
67500;SDS011;54349;52.528;19.760;2022-10-16T03:17:47;9.60;;;6.40;;
67500;SDS011;54349;52.528;19.760;2022-10-16T03:20:15;9.90;;;6.70;;
67500;SDS011;54349;52.528;19.760;2022-10-16T03:22:43;9.40;;;6.70;;
67500;SDS011;54349;52.528;19.760;2022-10-16T03:25:11;10.70;;;6.80;;
67500;SDS011;54349;52.528;19.760;2022-10-16T03:27:39;9.40;;;6.80;;
67500;SDS011;54349;52.528;19.760;2022-10-16T03:30:08;8.00;;;5.90;;
67500;SDS011;54349;52.528;19.760;2022-10-16T03:32:37;9.90;;;6.90;;
67500;SDS011;54349;52.528;19.760;2022-10-16T03:35:05;9.20;;;6.30;;
67500;SDS011;54349;52.528;19.760;2022-10-16T03:37:33;9.30;;;6.50;;
67500;SDS011;54349;52.528;19.760;2022-10-16T03:40:03;8.30;;;5.70;;
67500;SDS011;54349;52.528;19.760;2022-10-16T03:42:32;9.20;;;6.40;;
67500;SDS011;54349;52.528;19.760;2022-10-16T03:45:00;8.30;;;6.10;;
67500;SDS011;54349;52.528;19.760;2022-10-16T03:47:27;8.20;;;6.00;;
67500;SDS011;54349;52.528;19.760;2022-10-16T03:49:56;8.60;;;6.00;;
67500;SDS011;54349;52.528;19.760;2022-10-16T03:52:24;8.40;;;5.90;;
67500;SDS011;54349;52.528;19.760;2022-10-16T03:54:52;8.70;;;5.90;;
67500;SDS011;54349;52.528;19.760;2022-10-16T03:57:20;8.60;;;6.00;;
67500;SDS011;54349;52.528;19.760;2022-10-16T03:59:48;9.00;;;6.30;;
67500;SDS011;54349;52.528;19.760;2022-10-16T04:02:16;8.40;;;6.00;;
67500;SDS011;54349;52.528;19.760;2022-10-16T04:04:44;9.30;;;6.70;;
67500;SDS011;54349;52.528;19.760;2022-10-16T04:07:12;8.20;;;6.00;;
67500;SDS011;54349;52.528;19.760;2022-10-16T04:09:40;8.40;;;6.00;;
67500;SDS011;54349;52.528;19.760;2022-10-16T04:12:08;8.30;;;6.00;;
67500;SDS011;54349;52.528;19.760;2022-10-16T04:14:36;7.90;;;5.60;;
67500;SDS011;54349;52.528;19.760;2022-10-16T04:17:04;8.50;;;6.00;;
67500;SDS011;54349;52.528;19.760;2022-10-16T04:19:32;8.20;;;5.80;;
67500;SDS011;54349;52.528;19.760;2022-10-16T04:22:00;8.60;;;6.10;;
67500;SDS011;54349;52.528;19.760;2022-10-16T04:24:28;8.10;;;5.60;;
67500;SDS011;54349;52.528;19.760;2022-10-16T04:26:56;7.40;;;5.60;;
67500;SDS011;54349;52.528;19.760;2022-10-16T04:29:24;8.00;;;5.70;;
67500;SDS011;54349;52.528;19.760;2022-10-16T04:31:52;8.40;;;5.60;;
67500;SDS011;54349;52.528;19.760;2022-10-16T04:34:20;9.00;;;6.00;;
67500;SDS011;54349;52.528;19.760;2022-10-16T04:36:48;8.50;;;5.80;;
67500;SDS011;54349;52.528;19.760;2022-10-16T04:39:17;7.70;;;5.60;;
67500;SDS011;54349;52.528;19.760;2022-10-16T04:41:45;9.40;;;5.90;;
67500;SDS011;54349;52.528;19.760;2022-10-16T04:44:13;9.00;;;6.40;;
67500;SDS011;54349;52.528;19.760;2022-10-16T04:46:41;8.40;;;6.00;;
67500;SDS011;54349;52.528;19.760;2022-10-16T04:49:09;7.10;;;5.20;;
67500;SDS011;54349;52.528;19.760;2022-10-16T04:51:37;7.90;;;5.50;;
67500;SDS011;54349;52.528;19.760;2022-10-16T04:54:05;7.60;;;5.50;;
67500;SDS011;54349;52.528;19.760;2022-10-16T04:56:33;7.80;;;5.30;;
67500;SDS011;54349;52.528;19.760;2022-10-16T04:59:07;8.30;;;5.40;;
67500;SDS011;54349;52.528;19.760;2022-10-16T05:01:35;8.30;;;5.80;;
67500;SDS011;54349;52.528;19.760;2022-10-16T05:04:03;7.60;;;5.40;;
67500;SDS011;54349;52.528;19.760;2022-10-16T05:06:31;7.00;;;5.00;;
67500;SDS011;54349;52.528;19.760;2022-10-16T05:09:00;7.80;;;5.70;;
67500;SDS011;54349;52.528;19.760;2022-10-16T05:11:27;7.40;;;5.10;;
67500;SDS011;54349;52.528;19.760;2022-10-16T05:13:56;7.80;;;5.40;;
67500;SDS011;54349;52.528;19.760;2022-10-16T05:16:24;7.40;;;5.40;;
67500;SDS011;54349;52.528;19.760;2022-10-16T05:18:53;7.40;;;5.30;;
67500;SDS011;54349;52.528;19.760;2022-10-16T05:21:36;8.60;;;5.40;;
67500;SDS011;54349;52.528;19.760;2022-10-16T05:24:04;6.80;;;5.20;;
67500;SDS011;54349;52.528;19.760;2022-10-16T05:26:32;7.40;;;5.40;;
67500;SDS011;54349;52.528;19.760;2022-10-16T05:29:00;7.70;;;5.50;;
67500;SDS011;54349;52.528;19.760;2022-10-16T05:31:29;6.70;;;5.10;;
67500;SDS011;54349;52.528;19.760;2022-10-16T05:34:00;7.30;;;5.30;;
67500;SDS011;54349;52.528;19.760;2022-10-16T05:36:28;7.80;;;5.40;;
67500;SDS011;54349;52.528;19.760;2022-10-16T05:38:56;7.70;;;5.20;;
67500;SDS011;54349;52.528;19.760;2022-10-16T05:41:25;7.40;;;5.30;;
67500;SDS011;54349;52.528;19.760;2022-10-16T05:43:54;7.50;;;5.50;;
67500;SDS011;54349;52.528;19.760;2022-10-16T05:46:22;8.30;;;5.30;;
67500;SDS011;54349;52.528;19.760;2022-10-16T05:48:52;7.90;;;5.20;;
67500;SDS011;54349;52.528;19.760;2022-10-16T05:51:21;7.50;;;5.20;;
67500;SDS011;54349;52.528;19.760;2022-10-16T05:53:49;7.50;;;4.90;;
67500;SDS011;54349;52.528;19.760;2022-10-16T05:56:17;7.60;;;5.40;;
67500;SDS011;54349;52.528;19.760;2022-10-16T05:58:45;7.50;;;5.00;;
67500;SDS011;54349;52.528;19.760;2022-10-16T06:01:18;7.30;;;5.00;;
67500;SDS011;54349;52.528;19.760;2022-10-16T06:03:46;6.90;;;5.10;;
67500;SDS011;54349;52.528;19.760;2022-10-16T06:06:17;7.20;;;5.10;;
67500;SDS011;54349;52.528;19.760;2022-10-16T06:08:48;7.20;;;4.80;;
67500;SDS011;54349;52.528;19.760;2022-10-16T06:11:25;6.80;;;5.20;;
67500;SDS011;54349;52.528;19.760;2022-10-16T06:13:57;8.10;;;5.10;;
67500;SDS011;54349;52.528;19.760;2022-10-16T06:16:29;7.70;;;5.10;;
67500;SDS011;54349;52.528;19.760;2022-10-16T06:18:57;6.50;;;4.80;;
67500;SDS011;54349;52.528;19.760;2022-10-16T06:21:28;7.10;;;5.20;;
67500;SDS011;54349;52.528;19.760;2022-10-16T06:23:57;7.20;;;5.00;;
67500;SDS011;54349;52.528;19.760;2022-10-16T06:26:28;7.60;;;5.10;;
67500;SDS011;54349;52.528;19.760;2022-10-16T06:28:58;8.00;;;5.30;;
67500;SDS011;54349;52.528;19.760;2022-10-16T06:31:28;7.40;;;5.40;;
67500;SDS011;54349;52.528;19.760;2022-10-16T06:33:59;7.50;;;5.20;;
67500;SDS011;54349;52.528;19.760;2022-10-16T06:36:28;9.90;;;5.50;;
67500;SDS011;54349;52.528;19.760;2022-10-16T06:38:56;7.90;;;5.40;;
67500;SDS011;54349;52.528;19.760;2022-10-16T06:41:24;8.60;;;5.40;;
67500;SDS011;54349;52.528;19.760;2022-10-16T06:43:52;7.30;;;5.00;;
67500;SDS011;54349;52.528;19.760;2022-10-16T06:46:22;9.70;;;5.70;;
67500;SDS011;54349;52.528;19.760;2022-10-16T06:48:53;12.40;;;6.80;;
67500;SDS011;54349;52.528;19.760;2022-10-16T06:51:23;11.20;;;6.70;;
67500;SDS011;54349;52.528;19.760;2022-10-16T06:53:54;13.80;;;7.60;;
67500;SDS011;54349;52.528;19.760;2022-10-16T06:56:32;11.80;;;8.10;;
67500;SDS011;54349;52.528;19.760;2022-10-16T06:59:02;13.60;;;7.80;;
67500;SDS011;54349;52.528;19.760;2022-10-16T07:01:30;13.00;;;8.00;;
67500;SDS011;54349;52.528;19.760;2022-10-16T07:04:00;17.40;;;8.90;;
67500;SDS011;54349;52.528;19.760;2022-10-16T07:06:32;15.90;;;8.70;;
67500;SDS011;54349;52.528;19.760;2022-10-16T07:09:04;16.50;;;8.20;;
67500;SDS011;54349;52.528;19.760;2022-10-16T07:11:34;18.50;;;8.80;;
67500;SDS011;54349;52.528;19.760;2022-10-16T07:14:14;18.50;;;9.60;;
67500;SDS011;54349;52.528;19.760;2022-10-16T07:16:45;17.60;;;9.00;;
67500;SDS011;54349;52.528;19.760;2022-10-16T07:19:14;22.10;;;9.60;;
67500;SDS011;54349;52.528;19.760;2022-10-16T07:21:45;18.20;;;9.50;;
67500;SDS011;54349;52.528;19.760;2022-10-16T07:24:15;19.50;;;9.00;;
67500;SDS011;54349;52.528;19.760;2022-10-16T07:26:45;26.60;;;9.90;;
67500;SDS011;54349;52.528;19.760;2022-10-16T07:29:23;24.50;;;10.10;;
67500;SDS011;54349;52.528;19.760;2022-10-16T07:31:51;25.30;;;10.60;;
67500;SDS011;54349;52.528;19.760;2022-10-16T07:34:20;32.40;;;11.40;;
67500;SDS011;54349;52.528;19.760;2022-10-16T07:36:51;32.00;;;11.40;;
67500;SDS011;54349;52.528;19.760;2022-10-16T07:39:22;34.00;;;12.60;;
67500;SDS011;54349;52.528;19.760;2022-10-16T07:41:50;40.40;;;13.00;;
67500;SDS011;54349;52.528;19.760;2022-10-16T07:44:18;35.10;;;13.20;;
67500;SDS011;54349;52.528;19.760;2022-10-16T07:46:46;37.40;;;13.60;;
67500;SDS011;54349;52.528;19.760;2022-10-16T07:49:15;31.50;;;13.60;;
67500;SDS011;54349;52.528;19.760;2022-10-16T07:51:42;35.80;;;13.40;;
67500;SDS011;54349;52.528;19.760;2022-10-16T07:54:11;36.00;;;13.40;;
67500;SDS011;54349;52.528;19.760;2022-10-16T07:56:39;34.60;;;12.50;;
67500;SDS011;54349;52.528;19.760;2022-10-16T07:59:11;39.10;;;14.20;;
67500;SDS011;54349;52.528;19.760;2022-10-16T08:01:39;34.70;;;13.50;;
67500;SDS011;54349;52.528;19.760;2022-10-16T08:04:08;36.40;;;14.30;;
67500;SDS011;54349;52.528;19.760;2022-10-16T08:06:38;36.90;;;13.80;;
67500;SDS011;54349;52.528;19.760;2022-10-16T08:09:08;37.50;;;14.80;;
67500;SDS011;54349;52.528;19.760;2022-10-16T08:11:36;32.70;;;14.10;;
67500;SDS011;54349;52.528;19.760;2022-10-16T08:14:05;33.10;;;13.50;;
67500;SDS011;54349;52.528;19.760;2022-10-16T08:16:35;29.50;;;14.00;;
67500;SDS011;54349;52.528;19.760;2022-10-16T08:19:03;33.80;;;14.10;;
67500;SDS011;54349;52.528;19.760;2022-10-16T08:21:31;30.60;;;14.10;;
67500;SDS011;54349;52.528;19.760;2022-10-16T08:23:59;33.80;;;14.40;;
67500;SDS011;54349;52.528;19.760;2022-10-16T08:26:27;35.10;;;14.50;;
67500;SDS011;54349;52.528;19.760;2022-10-16T08:28:56;32.60;;;14.00;;
67500;SDS011;54349;52.528;19.760;2022-10-16T08:31:24;32.30;;;14.40;;
67500;SDS011;54349;52.528;19.760;2022-10-16T08:33:54;31.60;;;14.90;;
67500;SDS011;54349;52.528;19.760;2022-10-16T08:36:22;35.50;;;14.90;;
67500;SDS011;54349;52.528;19.760;2022-10-16T08:38:50;31.00;;;14.70;;
67500;SDS011;54349;52.528;19.760;2022-10-16T08:49:30;32.00;;;14.80;;
67500;SDS011;54349;52.528;19.760;2022-10-16T08:51:58;32.30;;;14.30;;
67500;SDS011;54349;52.528;19.760;2022-10-16T08:54:31;32.10;;;14.30;;
67500;SDS011;54349;52.528;19.760;2022-10-16T08:57:11;29.90;;;14.00;;
67500;SDS011;54349;52.528;19.760;2022-10-16T09:11:05;30.40;;;13.80;;
67500;SDS011;54349;52.528;19.760;2022-10-16T09:13:56;26.80;;;13.30;;
67500;SDS011;54349;52.528;19.760;2022-10-16T09:16:46;25.50;;;12.70;;
67500;SDS011;54349;52.528;19.760;2022-10-16T09:19:29;27.10;;;12.50;;
67500;SDS011;54349;52.528;19.760;2022-10-16T09:22:11;28.30;;;12.90;;
67500;SDS011;54349;52.528;19.760;2022-10-16T09:24:43;27.10;;;12.40;;
67500;SDS011;54349;52.528;19.760;2022-10-16T09:27:13;26.70;;;13.00;;
67500;SDS011;54349;52.528;19.760;2022-10-16T09:29:42;25.10;;;12.10;;
67500;SDS011;54349;52.528;19.760;2022-10-16T09:32:13;27.50;;;12.40;;
67500;SDS011;54349;52.528;19.760;2022-10-16T09:34:54;22.80;;;11.70;;
67500;SDS011;54349;52.528;19.760;2022-10-16T09:37:26;24.50;;;11.40;;
67500;SDS011;54349;52.528;19.760;2022-10-16T09:39:55;23.70;;;12.00;;
67500;SDS011;54349;52.528;19.760;2022-10-16T09:42:27;26.80;;;12.00;;
67500;SDS011;54349;52.528;19.760;2022-10-16T09:45:00;24.00;;;11.40;;
67500;SDS011;54349;52.528;19.760;2022-10-16T09:47:30;26.30;;;11.90;;
67500;SDS011;54349;52.528;19.760;2022-10-16T09:50:05;24.30;;;11.80;;
67500;SDS011;54349;52.528;19.760;2022-10-16T09:52:49;24.50;;;11.90;;
67500;SDS011;54349;52.528;19.760;2022-10-16T09:55:18;22.70;;;11.20;;
67500;SDS011;54349;52.528;19.760;2022-10-16T09:57:50;24.30;;;11.60;;
67500;SDS011;54349;52.528;19.760;2022-10-16T10:00:21;20.80;;;11.20;;
67500;SDS011;54349;52.528;19.760;2022-10-16T10:02:51;22.40;;;11.00;;
67500;SDS011;54349;52.528;19.760;2022-10-16T10:05:27;21.90;;;10.80;;
67500;SDS011;54349;52.528;19.760;2022-10-16T10:07:58;20.80;;;11.30;;
67500;SDS011;54349;52.528;19.760;2022-10-16T10:10:41;21.00;;;10.70;;
67500;SDS011;54349;52.528;19.760;2022-10-16T10:13:20;24.30;;;11.50;;
67500;SDS011;54349;52.528;19.760;2022-10-16T10:15:52;20.40;;;10.80;;
67500;SDS011;54349;52.528;19.760;2022-10-16T10:18:22;21.00;;;10.70;;
67500;SDS011;54349;52.528;19.760;2022-10-16T10:20:59;20.50;;;11.50;;
67500;SDS011;54349;52.528;19.760;2022-10-16T10:23:29;22.80;;;11.30;;
67500;SDS011;54349;52.528;19.760;2022-10-16T10:26:24;23.10;;;11.30;;
67500;SDS011;54349;52.528;19.760;2022-10-16T10:29:06;18.90;;;11.00;;
67500;SDS011;54349;52.528;19.760;2022-10-16T10:35:17;26.10;;;11.20;;
67500;SDS011;54349;52.528;19.760;2022-10-16T10:41:00;23.20;;;11.60;;
67500;SDS011;54349;52.528;19.760;2022-10-16T10:43:40;21.30;;;11.60;;
67500;SDS011;54349;52.528;19.760;2022-10-16T10:46:19;18.90;;;10.10;;
67500;SDS011;54349;52.528;19.760;2022-10-16T10:49:23;20.00;;;10.90;;
67500;SDS011;54349;52.528;19.760;2022-10-16T11:01:30;21.60;;;10.80;;
67500;SDS011;54349;52.528;19.760;2022-10-16T11:04:32;18.80;;;9.90;;
67500;SDS011;54349;52.528;19.760;2022-10-16T11:07:15;19.60;;;10.80;;
67500;SDS011;54349;52.528;19.760;2022-10-16T11:09:53;22.50;;;11.80;;
67500;SDS011;54349;52.528;19.760;2022-10-16T11:12:34;19.30;;;10.20;;
67500;SDS011;54349;52.528;19.760;2022-10-16T11:15:29;20.00;;;10.50;;
67500;SDS011;54349;52.528;19.760;2022-10-16T11:18:16;19.70;;;10.10;;
67500;SDS011;54349;52.528;19.760;2022-10-16T11:20:54;19.70;;;10.20;;
67500;SDS011;54349;52.528;19.760;2022-10-16T11:23:38;18.20;;;10.40;;
67500;SDS011;54349;52.528;19.760;2022-10-16T11:26:21;16.70;;;9.50;;
67500;SDS011;54349;52.528;19.760;2022-10-16T11:28:59;20.30;;;10.50;;
67500;SDS011;54349;52.528;19.760;2022-10-16T11:31:41;20.60;;;10.60;;
67500;SDS011;54349;52.528;19.760;2022-10-16T11:37:15;17.90;;;9.70;;
67500;SDS011;54349;52.528;19.760;2022-10-16T11:39:48;17.40;;;9.80;;
67500;SDS011;54349;52.528;19.760;2022-10-16T11:42:22;20.10;;;10.20;;
67500;SDS011;54349;52.528;19.760;2022-10-16T11:47:39;19.20;;;10.50;;
67500;SDS011;54349;52.528;19.760;2022-10-16T11:50:39;19.70;;;9.50;;
67500;SDS011;54349;52.528;19.760;2022-10-16T11:53:24;18.60;;;9.90;;
67500;SDS011;54349;52.528;19.760;2022-10-16T11:55:56;17.90;;;9.70;;
67500;SDS011;54349;52.528;19.760;2022-10-16T12:06:55;16.40;;;9.20;;
67500;SDS011;54349;52.528;19.760;2022-10-16T12:09:39;16.90;;;9.30;;
67500;SDS011;54349;52.528;19.760;2022-10-16T12:15:21;17.80;;;9.80;;
67500;SDS011;54349;52.528;19.760;2022-10-16T12:18:22;16.40;;;9.00;;
67500;SDS011;54349;52.528;19.760;2022-10-16T12:20:56;19.10;;;9.60;;
67500;SDS011;54349;52.528;19.760;2022-10-16T12:23:28;17.30;;;9.30;;
67500;SDS011;54349;52.528;19.760;2022-10-16T12:25:59;16.70;;;9.40;;
67500;SDS011;54349;52.528;19.760;2022-10-16T12:28:31;19.70;;;9.50;;
67500;SDS011;54349;52.528;19.760;2022-10-16T12:31:06;15.60;;;9.10;;
67500;SDS011;54349;52.528;19.760;2022-10-16T12:33:42;15.40;;;9.60;;
67500;SDS011;54349;52.528;19.760;2022-10-16T12:36:34;16.90;;;9.10;;
67500;SDS011;54349;52.528;19.760;2022-10-16T12:39:03;17.20;;;9.10;;
67500;SDS011;54349;52.528;19.760;2022-10-16T12:41:33;15.90;;;8.90;;
67500;SDS011;54349;52.528;19.760;2022-10-16T12:44:03;17.30;;;9.50;;
67500;SDS011;54349;52.528;19.760;2022-10-16T12:46:38;15.70;;;8.50;;
67500;SDS011;54349;52.528;19.760;2022-10-16T12:51:56;15.10;;;9.20;;
67500;SDS011;54349;52.528;19.760;2022-10-16T12:54:36;15.40;;;9.10;;
67500;SDS011;54349;52.528;19.760;2022-10-16T13:07:00;14.50;;;8.50;;
67500;SDS011;54349;52.528;19.760;2022-10-16T13:16:00;14.80;;;8.80;;
67500;SDS011;54349;52.528;19.760;2022-10-16T13:18:58;13.50;;;8.10;;
67500;SDS011;54349;52.528;19.760;2022-10-16T13:22:14;13.50;;;8.40;;
67500;SDS011;54349;52.528;19.760;2022-10-16T13:27:54;17.40;;;8.70;;
67500;SDS011;54349;52.528;19.760;2022-10-16T13:30:29;14.00;;;8.50;;
67500;SDS011;54349;52.528;19.760;2022-10-16T13:33:19;13.20;;;8.10;;
67500;SDS011;54349;52.528;19.760;2022-10-16T13:35:53;12.50;;;7.60;;
67500;SDS011;54349;52.528;19.760;2022-10-16T13:38:25;15.80;;;8.80;;
67500;SDS011;54349;52.528;19.760;2022-10-16T13:46:13;11.60;;;7.50;;
67500;SDS011;54349;52.528;19.760;2022-10-16T13:48:43;13.60;;;8.10;;
67500;SDS011;54349;52.528;19.760;2022-10-16T13:51:17;12.80;;;8.00;;
67500;SDS011;54349;52.528;19.760;2022-10-16T13:53:46;13.20;;;7.90;;
67500;SDS011;54349;52.528;19.760;2022-10-16T13:56:17;15.20;;;8.40;;
67500;SDS011;54349;52.528;19.760;2022-10-16T13:59:02;12.40;;;8.10;;
67500;SDS011;54349;52.528;19.760;2022-10-16T14:04:12;12.40;;;7.60;;
67500;SDS011;54349;52.528;19.760;2022-10-16T14:06:44;14.90;;;8.10;;
67500;SDS011;54349;52.528;19.760;2022-10-16T14:09:34;14.50;;;7.60;;
67500;SDS011;54349;52.528;19.760;2022-10-16T14:12:10;12.60;;;8.00;;
67500;SDS011;54349;52.528;19.760;2022-10-16T14:14:53;12.00;;;7.20;;
67500;SDS011;54349;52.528;19.760;2022-10-16T14:17:26;12.40;;;7.00;;
67500;SDS011;54349;52.528;19.760;2022-10-16T14:20:03;12.30;;;7.90;;
67500;SDS011;54349;52.528;19.760;2022-10-16T14:22:36;11.90;;;7.50;;
67500;SDS011;54349;52.528;19.760;2022-10-16T14:30:35;12.90;;;7.60;;
67500;SDS011;54349;52.528;19.760;2022-10-16T14:33:06;13.20;;;8.20;;
67500;SDS011;54349;52.528;19.760;2022-10-16T14:36:00;11.60;;;7.00;;
67500;SDS011;54349;52.528;19.760;2022-10-16T14:38:32;13.10;;;7.80;;
67500;SDS011;54349;52.528;19.760;2022-10-16T14:41:03;11.50;;;7.30;;
67500;SDS011;54349;52.528;19.760;2022-10-16T14:43:33;12.90;;;7.30;;
67500;SDS011;54349;52.528;19.760;2022-10-16T14:46:34;11.90;;;7.70;;
67500;SDS011;54349;52.528;19.760;2022-10-16T14:49:17;12.10;;;7.50;;
67500;SDS011;54349;52.528;19.760;2022-10-16T14:51:49;13.10;;;7.60;;
67500;SDS011;54349;52.528;19.760;2022-10-16T14:54:18;12.80;;;7.80;;
67500;SDS011;54349;52.528;19.760;2022-10-16T14:56:52;11.90;;;7.40;;
67500;SDS011;54349;52.528;19.760;2022-10-16T14:59:41;12.40;;;7.50;;
67500;SDS011;54349;52.528;19.760;2022-10-16T15:04:56;11.60;;;7.10;;
67500;SDS011;54349;52.528;19.760;2022-10-16T15:07:24;11.50;;;6.60;;
67500;SDS011;54349;52.528;19.760;2022-10-16T15:09:53;11.70;;;7.10;;
67500;SDS011;54349;52.528;19.760;2022-10-16T15:12:22;11.80;;;7.10;;
67500;SDS011;54349;52.528;19.760;2022-10-16T15:14:50;11.60;;;7.40;;
67500;SDS011;54349;52.528;19.760;2022-10-16T15:17:18;11.60;;;7.40;;
67500;SDS011;54349;52.528;19.760;2022-10-16T15:19:48;11.40;;;7.00;;
67500;SDS011;54349;52.528;19.760;2022-10-16T15:22:17;12.10;;;7.20;;
67500;SDS011;54349;52.528;19.760;2022-10-16T15:24:45;11.70;;;6.90;;
67500;SDS011;54349;52.528;19.760;2022-10-16T15:27:13;10.60;;;7.00;;
67500;SDS011;54349;52.528;19.760;2022-10-16T15:29:41;13.30;;;7.10;;
67500;SDS011;54349;52.528;19.760;2022-10-16T15:32:10;11.60;;;7.20;;
67500;SDS011;54349;52.528;19.760;2022-10-16T15:34:38;11.70;;;7.30;;
67500;SDS011;54349;52.528;19.760;2022-10-16T15:37:06;10.60;;;7.00;;
67500;SDS011;54349;52.528;19.760;2022-10-16T15:39:36;10.60;;;6.80;;
67500;SDS011;54349;52.528;19.760;2022-10-16T15:42:07;10.90;;;7.20;;
67500;SDS011;54349;52.528;19.760;2022-10-16T15:44:35;11.00;;;7.20;;
67500;SDS011;54349;52.528;19.760;2022-10-16T15:47:04;11.20;;;6.90;;
67500;SDS011;54349;52.528;19.760;2022-10-16T15:49:32;13.00;;;7.10;;
67500;SDS011;54349;52.528;19.760;2022-10-16T15:52:00;10.30;;;6.50;;
67500;SDS011;54349;52.528;19.760;2022-10-16T15:54:28;11.40;;;6.90;;
67500;SDS011;54349;52.528;19.760;2022-10-16T15:56:56;10.90;;;7.20;;
67500;SDS011;54349;52.528;19.760;2022-10-16T15:59:24;10.20;;;6.90;;
67500;SDS011;54349;52.528;19.760;2022-10-16T16:01:52;11.50;;;7.30;;
67500;SDS011;54349;52.528;19.760;2022-10-16T16:04:20;10.50;;;6.80;;
67500;SDS011;54349;52.528;19.760;2022-10-16T16:07:08;10.30;;;6.60;;
67500;SDS011;54349;52.528;19.760;2022-10-16T16:09:38;11.70;;;7.20;;
67500;SDS011;54349;52.528;19.760;2022-10-16T16:12:06;11.30;;;7.20;;
67500;SDS011;54349;52.528;19.760;2022-10-16T16:14:34;10.60;;;6.70;;
67500;SDS011;54349;52.528;19.760;2022-10-16T16:17:02;11.80;;;6.90;;
67500;SDS011;54349;52.528;19.760;2022-10-16T16:19:31;12.90;;;6.90;;
67500;SDS011;54349;52.528;19.760;2022-10-16T16:22:00;11.80;;;7.50;;
67500;SDS011;54349;52.528;19.760;2022-10-16T16:24:28;11.50;;;7.00;;
67500;SDS011;54349;52.528;19.760;2022-10-16T16:26:57;10.40;;;7.00;;
67500;SDS011;54349;52.528;19.760;2022-10-16T16:29:29;10.30;;;7.00;;
67500;SDS011;54349;52.528;19.760;2022-10-16T16:31:59;10.80;;;7.00;;
67500;SDS011;54349;52.528;19.760;2022-10-16T16:34:29;10.40;;;6.90;;
67500;SDS011;54349;52.528;19.760;2022-10-16T16:36:59;11.80;;;7.10;;
67500;SDS011;54349;52.528;19.760;2022-10-16T16:39:28;9.80;;;6.30;;